sensor_id;sensor_type;location;lat;lon;timestamp;pressure;altitude;pressure_sealevel;temperature;humidity
55460;BME280;41326;45.302;-122.946;2023-04-26T00:01:17;101502.71;;;19.50;40.42
55460;BME280;41326;45.302;-122.946;2023-04-26T00:03:48;101499.21;;;19.46;41.01
55460;BME280;41326;45.302;-122.946;2023-04-26T00:06:18;101501.07;;;19.41;41.59
55460;BME280;41326;45.302;-122.946;2023-04-26T00:08:49;101497.75;;;19.42;41.71
55460;BME280;41326;45.302;-122.946;2023-04-26T00:11:19;101499.60;;;19.48;40.85
55460;BME280;41326;45.302;-122.946;2023-04-26T00:13:49;101498.48;;;19.58;38.40
55460;BME280;41326;45.302;-122.946;2023-04-26T00:16:19;101493.97;;;19.40;39.11
55460;BME280;41326;45.302;-122.946;2023-04-26T00:18:49;101504.14;;;19.40;40.42
55460;BME280;41326;45.302;-122.946;2023-04-26T00:21:19;101508.39;;;19.33;42.59
55460;BME280;41326;45.302;-122.946;2023-04-26T00:23:50;101507.64;;;19.10;42.99
55460;BME280;41326;45.302;-122.946;2023-04-26T00:26:20;101503.85;;;19.37;40.43
55460;BME280;41326;45.302;-122.946;2023-04-26T00:28:50;101503.36;;;19.17;41.42
55460;BME280;41326;45.302;-122.946;2023-04-26T00:31:20;101501.39;;;18.99;42.37
55460;BME280;41326;45.302;-122.946;2023-04-26T00:33:51;101501.36;;;19.11;42.29
55460;BME280;41326;45.302;-122.946;2023-04-26T00:36:20;101497.28;;;19.25;41.67
55460;BME280;41326;45.302;-122.946;2023-04-26T00:38:51;101498.35;;;19.07;42.68
55460;BME280;41326;45.302;-122.946;2023-04-26T00:41:22;101502.77;;;18.88;44.00
55460;BME280;41326;45.302;-122.946;2023-04-26T00:43:52;101510.81;;;19.22;43.22
55460;BME280;41326;45.302;-122.946;2023-04-26T00:46:23;101510.28;;;19.37;42.12
55460;BME280;41326;45.302;-122.946;2023-04-26T00:48:53;101507.30;;;19.43;41.51
55460;BME280;41326;45.302;-122.946;2023-04-26T00:51:23;101505.38;;;19.47;41.25
55460;BME280;41326;45.302;-122.946;2023-04-26T00:53:55;101497.68;;;19.39;41.58
55460;BME280;41326;45.302;-122.946;2023-04-26T00:56:25;101498.01;;;19.35;42.25
55460;BME280;41326;45.302;-122.946;2023-04-26T00:58:54;101497.55;;;19.25;42.00
55460;BME280;41326;45.302;-122.946;2023-04-26T01:01:25;101488.58;;;19.04;43.69
55460;BME280;41326;45.302;-122.946;2023-04-26T01:03:56;101480.19;;;19.29;41.91
55460;BME280;41326;45.302;-122.946;2023-04-26T01:06:25;101477.74;;;19.32;41.70
55460;BME280;41326;45.302;-122.946;2023-04-26T01:08:56;101479.22;;;19.20;42.74
55460;BME280;41326;45.302;-122.946;2023-04-26T01:11:26;101477.90;;;19.23;42.66
55460;BME280;41326;45.302;-122.946;2023-04-26T01:13:58;101476.99;;;19.30;41.94
55460;BME280;41326;45.302;-122.946;2023-04-26T01:16:26;101474.92;;;19.34;42.75
55460;BME280;41326;45.302;-122.946;2023-04-26T01:18:56;101476.08;;;19.23;44.15
55460;BME280;41326;45.302;-122.946;2023-04-26T01:21:26;101480.87;;;19.11;46.37
55460;BME280;41326;45.302;-122.946;2023-04-26T01:23:57;101482.93;;;18.99;47.11
55460;BME280;41326;45.302;-122.946;2023-04-26T01:26:27;101487.88;;;19.11;46.68
55460;BME280;41326;45.302;-122.946;2023-04-26T01:28:58;101488.34;;;19.05;47.50
55460;BME280;41326;45.302;-122.946;2023-04-26T01:32:35;101490.33;;;19.18;45.09
55460;BME280;41326;45.302;-122.946;2023-04-26T01:35:05;101490.11;;;19.08;45.12
55460;BME280;41326;45.302;-122.946;2023-04-26T01:37:35;101484.17;;;19.01;45.82
55460;BME280;41326;45.302;-122.946;2023-04-26T01:40:06;101485.75;;;19.02;46.07
55460;BME280;41326;45.302;-122.946;2023-04-26T01:42:47;101481.76;;;19.21;43.61
55460;BME280;41326;45.302;-122.946;2023-04-26T01:45:17;101480.72;;;19.08;44.11
55460;BME280;41326;45.302;-122.946;2023-04-26T01:47:48;101477.97;;;19.11;43.69
55460;BME280;41326;45.302;-122.946;2023-04-26T01:50:18;101470.93;;;19.23;43.92
55460;BME280;41326;45.302;-122.946;2023-04-26T01:52:49;101471.05;;;19.12;43.48
55460;BME280;41326;45.302;-122.946;2023-04-26T01:55:19;101472.20;;;19.09;43.73
55460;BME280;41326;45.302;-122.946;2023-04-26T01:57:49;101470.79;;;19.10;43.72
55460;BME280;41326;45.302;-122.946;2023-04-26T02:00:20;101462.04;;;19.25;44.31
55460;BME280;41326;45.302;-122.946;2023-04-26T02:02:53;101460.68;;;19.14;44.70
55460;BME280;41326;45.302;-122.946;2023-04-26T02:05:21;101458.67;;;19.07;44.83
55460;BME280;41326;45.302;-122.946;2023-04-26T02:07:51;101452.88;;;19.04;44.90
55460;BME280;41326;45.302;-122.946;2023-04-26T02:10:21;101451.83;;;18.98;44.70
55460;BME280;41326;45.302;-122.946;2023-04-26T02:12:51;101451.70;;;18.87;44.69
55460;BME280;41326;45.302;-122.946;2023-04-26T02:15:22;101453.06;;;18.75;44.57
55460;BME280;41326;45.302;-122.946;2023-04-26T02:17:52;101453.06;;;18.78;44.40
55460;BME280;41326;45.302;-122.946;2023-04-26T02:20:23;101454.05;;;18.83;44.22
55460;BME280;41326;45.302;-122.946;2023-04-26T02:22:53;101454.81;;;18.70;43.94
55460;BME280;41326;45.302;-122.946;2023-04-26T02:25:23;101454.29;;;18.67;43.89
55460;BME280;41326;45.302;-122.946;2023-04-26T02:27:54;101456.96;;;18.72;43.57
55460;BME280;41326;45.302;-122.946;2023-04-26T02:30:24;101457.35;;;18.71;43.74
55460;BME280;41326;45.302;-122.946;2023-04-26T02:32:55;101456.91;;;18.71;43.73
55460;BME280;41326;45.302;-122.946;2023-04-26T02:35:25;101454.96;;;18.68;43.90
55460;BME280;41326;45.302;-122.946;2023-04-26T02:37:55;101453.42;;;18.65;43.88
55460;BME280;41326;45.302;-122.946;2023-04-26T02:40:26;101452.54;;;18.61;44.08
55460;BME280;41326;45.302;-122.946;2023-04-26T02:42:56;101453.20;;;18.57;44.18
55460;BME280;41326;45.302;-122.946;2023-04-26T02:45:26;101454.06;;;18.51;44.32
55460;BME280;41326;45.302;-122.946;2023-04-26T02:47:57;101460.78;;;18.47;43.93
55460;BME280;41326;45.302;-122.946;2023-04-26T02:50:27;101465.99;;;18.50;43.55
55460;BME280;41326;45.302;-122.946;2023-04-26T02:52:57;101470.02;;;18.43;43.69
55460;BME280;41326;45.302;-122.946;2023-04-26T02:55:27;101471.13;;;18.41;43.33
55460;BME280;41326;45.302;-122.946;2023-04-26T02:57:57;101472.60;;;18.36;43.10
55460;BME280;41326;45.302;-122.946;2023-04-26T03:00:28;101474.49;;;18.35;43.23
55460;BME280;41326;45.302;-122.946;2023-04-26T03:02:59;101475.58;;;18.28;43.28
55460;BME280;41326;45.302;-122.946;2023-04-26T03:05:29;101476.94;;;18.29;43.01
55460;BME280;41326;45.302;-122.946;2023-04-26T03:07:59;101478.58;;;18.20;42.97
55460;BME280;41326;45.302;-122.946;2023-04-26T03:10:29;101480.92;;;18.13;43.13
55460;BME280;41326;45.302;-122.946;2023-04-26T03:13:00;101482.75;;;18.08;43.40
55460;BME280;41326;45.302;-122.946;2023-04-26T03:15:30;101487.30;;;18.03;43.38
55460;BME280;41326;45.302;-122.946;2023-04-26T03:18:00;101483.15;;;17.89;44.15
55460;BME280;41326;45.302;-122.946;2023-04-26T03:20:30;101484.36;;;17.92;44.58
55460;BME280;41326;45.302;-122.946;2023-04-26T03:23:01;101480.62;;;17.81;45.20
55460;BME280;41326;45.302;-122.946;2023-04-26T03:25:32;101483.26;;;17.71;45.00
55460;BME280;41326;45.302;-122.946;2023-04-26T03:28:02;101485.56;;;17.64;45.41
55460;BME280;41326;45.302;-122.946;2023-04-26T03:30:32;101485.88;;;17.60;47.29
55460;BME280;41326;45.302;-122.946;2023-04-26T03:33:03;101487.55;;;17.44;46.61
55460;BME280;41326;45.302;-122.946;2023-04-26T03:35:33;101490.30;;;17.41;46.98
55460;BME280;41326;45.302;-122.946;2023-04-26T03:38:03;101489.34;;;17.35;47.50
55460;BME280;41326;45.302;-122.946;2023-04-26T03:40:34;101493.50;;;17.27;48.17
55460;BME280;41326;45.302;-122.946;2023-04-26T03:43:04;101498.30;;;17.24;48.66
55460;BME280;41326;45.302;-122.946;2023-04-26T03:45:35;101501.84;;;17.26;48.18
55460;BME280;41326;45.302;-122.946;2023-04-26T03:48:04;101508.38;;;17.18;49.09
55460;BME280;41326;45.302;-122.946;2023-04-26T03:50:35;101510.25;;;17.22;48.29
55460;BME280;41326;45.302;-122.946;2023-04-26T03:53:05;101510.34;;;17.18;49.32
55460;BME280;41326;45.302;-122.946;2023-04-26T03:55:35;101513.98;;;17.22;49.31
55460;BME280;41326;45.302;-122.946;2023-04-26T03:58:05;101512.66;;;17.27;49.15
55460;BME280;41326;45.302;-122.946;2023-04-26T04:00:36;101515.48;;;17.27;49.28
55460;BME280;41326;45.302;-122.946;2023-04-26T04:03:06;101512.23;;;17.39;49.07
55460;BME280;41326;45.302;-122.946;2023-04-26T04:05:37;101513.24;;;17.50;48.88
55460;BME280;41326;45.302;-122.946;2023-04-26T04:08:06;101512.05;;;17.57;48.86
55460;BME280;41326;45.302;-122.946;2023-04-26T04:10:37;101514.74;;;17.64;48.80
55460;BME280;41326;45.302;-122.946;2023-04-26T04:13:07;101520.07;;;17.65;48.96
55460;BME280;41326;45.302;-122.946;2023-04-26T04:15:38;101523.16;;;17.71;48.93
55460;BME280;41326;45.302;-122.946;2023-04-26T04:18:08;101533.25;;;17.76;49.00
55460;BME280;41326;45.302;-122.946;2023-04-26T04:20:39;101537.94;;;17.77;49.10
55460;BME280;41326;45.302;-122.946;2023-04-26T04:23:09;101540.95;;;17.83;49.00
55460;BME280;41326;45.302;-122.946;2023-04-26T04:25:39;101541.92;;;17.82;49.12
55460;BME280;41326;45.302;-122.946;2023-04-26T04:28:09;101543.93;;;17.85;49.10
55460;BME280;41326;45.302;-122.946;2023-04-26T04:30:40;101542.01;;;17.84;49.25
55460;BME280;41326;45.302;-122.946;2023-04-26T04:33:10;101544.79;;;17.84;49.31
55460;BME280;41326;45.302;-122.946;2023-04-26T04:35:41;101544.63;;;17.84;49.38
55460;BME280;41326;45.302;-122.946;2023-04-26T04:38:11;101541.70;;;17.86;49.43
55460;BME280;41326;45.302;-122.946;2023-04-26T04:40:41;101541.48;;;17.91;49.37
55460;BME280;41326;45.302;-122.946;2023-04-26T04:43:12;101543.50;;;17.90;49.43
55460;BME280;41326;45.302;-122.946;2023-04-26T04:45:42;101544.32;;;17.92;49.40
55460;BME280;41326;45.302;-122.946;2023-04-26T04:48:13;101547.40;;;17.91;49.47
55460;BME280;41326;45.302;-122.946;2023-04-26T04:50:43;101546.56;;;17.92;49.51
55460;BME280;41326;45.302;-122.946;2023-04-26T04:53:14;101552.43;;;17.90;49.64
55460;BME280;41326;45.302;-122.946;2023-04-26T04:55:44;101555.16;;;17.92;49.64
55460;BME280;41326;45.302;-122.946;2023-04-26T04:58:14;101555.41;;;17.95;49.63
55460;BME280;41326;45.302;-122.946;2023-04-26T05:00:44;101554.95;;;17.92;49.79
55460;BME280;41326;45.302;-122.946;2023-04-26T05:03:15;101550.10;;;17.93;49.82
55460;BME280;41326;45.302;-122.946;2023-04-26T05:05:45;101550.08;;;17.93;49.89
55460;BME280;41326;45.302;-122.946;2023-04-26T05:08:15;101547.54;;;17.92;49.97
55460;BME280;41326;45.302;-122.946;2023-04-26T05:10:46;101547.94;;;17.91;50.03
55460;BME280;41326;45.302;-122.946;2023-04-26T05:13:16;101552.51;;;17.94;49.99
55460;BME280;41326;45.302;-122.946;2023-04-26T05:15:47;101550.87;;;17.92;50.16
55460;BME280;41326;45.302;-122.946;2023-04-26T05:18:17;101551.91;;;17.96;50.16
55460;BME280;41326;45.302;-122.946;2023-04-26T05:20:48;101554.14;;;17.96;50.29
55460;BME280;41326;45.302;-122.946;2023-04-26T05:23:18;101555.39;;;17.94;50.41
55460;BME280;41326;45.302;-122.946;2023-04-26T05:25:49;101554.88;;;17.93;50.50
55460;BME280;41326;45.302;-122.946;2023-04-26T05:28:19;101557.77;;;17.90;50.62
55460;BME280;41326;45.302;-122.946;2023-04-26T05:30:50;101555.92;;;17.89;50.72
55460;BME280;41326;45.302;-122.946;2023-04-26T05:33:20;101555.93;;;17.92;50.68
55460;BME280;41326;45.302;-122.946;2023-04-26T05:35:50;101554.80;;;17.87;50.88
55460;BME280;41326;45.302;-122.946;2023-04-26T05:38:19;101553.30;;;17.89;50.88
55460;BME280;41326;45.302;-122.946;2023-04-26T05:40:50;101554.01;;;17.86;50.96
55460;BME280;41326;45.302;-122.946;2023-04-26T05:43:20;101552.56;;;17.88;50.94
55460;BME280;41326;45.302;-122.946;2023-04-26T05:45:55;101549.06;;;17.86;51.00
55460;BME280;41326;45.302;-122.946;2023-04-26T05:48:22;101544.97;;;17.87;51.00
55460;BME280;41326;45.302;-122.946;2023-04-26T05:50:51;101546.64;;;17.86;51.06
55460;BME280;41326;45.302;-122.946;2023-04-26T05:53:22;101540.87;;;17.82;51.17
55460;BME280;41326;45.302;-122.946;2023-04-26T05:55:52;101538.41;;;17.83;51.18
55460;BME280;41326;45.302;-122.946;2023-04-26T05:58:22;101539.57;;;17.87;51.10
55460;BME280;41326;45.302;-122.946;2023-04-26T06:00:53;101540.28;;;17.83;51.25
55460;BME280;41326;45.302;-122.946;2023-04-26T06:03:24;101538.70;;;17.84;51.24
55460;BME280;41326;45.302;-122.946;2023-04-26T06:05:54;101539.38;;;17.82;51.32
55460;BME280;41326;45.302;-122.946;2023-04-26T06:08:24;101538.15;;;17.81;51.35
55460;BME280;41326;45.302;-122.946;2023-04-26T06:10:55;101541.74;;;17.80;51.41
55460;BME280;41326;45.302;-122.946;2023-04-26T06:13:25;101539.76;;;17.81;51.42
55460;BME280;41326;45.302;-122.946;2023-04-26T06:15:57;101539.61;;;17.79;51.50
55460;BME280;41326;45.302;-122.946;2023-04-26T06:18:26;101539.31;;;17.80;51.44
55460;BME280;41326;45.302;-122.946;2023-04-26T06:20:56;101538.62;;;17.79;51.49
55460;BME280;41326;45.302;-122.946;2023-04-26T06:23:26;101534.65;;;17.78;51.52
55460;BME280;41326;45.302;-122.946;2023-04-26T06:25:56;101531.28;;;17.72;51.69
55460;BME280;41326;45.302;-122.946;2023-04-26T06:28:27;101529.97;;;17.75;51.61
55460;BME280;41326;45.302;-122.946;2023-04-26T06:30:57;101530.34;;;17.70;51.78
55460;BME280;41326;45.302;-122.946;2023-04-26T06:33:28;101529.12;;;17.69;51.82
55460;BME280;41326;45.302;-122.946;2023-04-26T06:35:57;101533.50;;;17.68;51.86
55460;BME280;41326;45.302;-122.946;2023-04-26T06:38:28;101537.07;;;17.71;51.79
55460;BME280;41326;45.302;-122.946;2023-04-26T06:40:58;101539.33;;;17.70;51.87
55460;BME280;41326;45.302;-122.946;2023-04-26T06:43:28;101540.79;;;17.67;51.97
55460;BME280;41326;45.302;-122.946;2023-04-26T06:45:58;101540.71;;;17.67;51.97
55460;BME280;41326;45.302;-122.946;2023-04-26T06:48:29;101540.21;;;17.64;52.10
55460;BME280;41326;45.302;-122.946;2023-04-26T06:51:03;101542.14;;;17.65;52.10
55460;BME280;41326;45.302;-122.946;2023-04-26T06:53:29;101546.71;;;17.63;52.22
55460;BME280;41326;45.302;-122.946;2023-04-26T06:55:59;101551.40;;;17.61;52.30
55460;BME280;41326;45.302;-122.946;2023-04-26T06:58:29;101552.16;;;17.64;52.23
55460;BME280;41326;45.302;-122.946;2023-04-26T07:01:00;101552.36;;;17.66;52.22
55460;BME280;41326;45.302;-122.946;2023-04-26T07:03:31;101551.94;;;17.61;52.41
55460;BME280;41326;45.302;-122.946;2023-04-26T07:06:00;101550.54;;;17.61;52.44
55460;BME280;41326;45.302;-122.946;2023-04-26T07:08:31;101550.55;;;17.59;52.56
55460;BME280;41326;45.302;-122.946;2023-04-26T07:11:00;101549.07;;;17.61;52.49
55460;BME280;41326;45.302;-122.946;2023-04-26T07:13:31;101547.68;;;17.58;52.62
55460;BME280;41326;45.302;-122.946;2023-04-26T07:16:01;101550.18;;;17.56;52.69
55460;BME280;41326;45.302;-122.946;2023-04-26T07:18:32;101550.31;;;17.53;52.84
55460;BME280;41326;45.302;-122.946;2023-04-26T07:21:02;101546.13;;;17.57;52.71
55460;BME280;41326;45.302;-122.946;2023-04-26T07:23:34;101545.85;;;17.51;52.93
55460;BME280;41326;45.302;-122.946;2023-04-26T07:26:03;101544.09;;;17.48;53.00
55460;BME280;41326;45.302;-122.946;2023-04-26T07:28:33;101547.04;;;17.49;53.03
55460;BME280;41326;45.302;-122.946;2023-04-26T07:31:04;101548.36;;;17.47;53.09
55460;BME280;41326;45.302;-122.946;2023-04-26T07:33:34;101550.80;;;17.46;53.14
55460;BME280;41326;45.302;-122.946;2023-04-26T07:36:04;101550.91;;;17.45;53.17
55460;BME280;41326;45.302;-122.946;2023-04-26T07:38:34;101553.29;;;17.47;53.16
55460;BME280;41326;45.302;-122.946;2023-04-26T07:41:04;101553.07;;;17.42;53.39
55460;BME280;41326;45.302;-122.946;2023-04-26T07:43:36;101551.15;;;17.45;53.29
55460;BME280;41326;45.302;-122.946;2023-04-26T07:46:05;101545.47;;;17.44;53.34
55460;BME280;41326;45.302;-122.946;2023-04-26T07:48:35;101543.88;;;17.41;53.45
55460;BME280;41326;45.302;-122.946;2023-04-26T07:51:10;101540.31;;;17.41;53.49
55460;BME280;41326;45.302;-122.946;2023-04-26T07:53:36;101540.21;;;17.37;53.63
55460;BME280;41326;45.302;-122.946;2023-04-26T07:56:08;101538.94;;;17.40;53.52
55460;BME280;41326;45.302;-122.946;2023-04-26T07:58:37;101535.26;;;17.38;53.56
55460;BME280;41326;45.302;-122.946;2023-04-26T08:01:07;101538.64;;;17.40;53.51
55460;BME280;41326;45.302;-122.946;2023-04-26T08:03:38;101538.53;;;17.39;53.57
55460;BME280;41326;45.302;-122.946;2023-04-26T08:06:08;101541.57;;;17.35;53.68
55460;BME280;41326;45.302;-122.946;2023-04-26T08:08:38;101541.60;;;17.36;53.66
55460;BME280;41326;45.302;-122.946;2023-04-26T08:11:12;101540.44;;;17.27;53.92
55460;BME280;41326;45.302;-122.946;2023-04-26T08:13:39;101541.15;;;17.30;53.83
55460;BME280;41326;45.302;-122.946;2023-04-26T08:16:10;101538.37;;;17.32;53.76
55460;BME280;41326;45.302;-122.946;2023-04-26T08:18:41;101533.83;;;17.32;53.71
55460;BME280;41326;45.302;-122.946;2023-04-26T08:21:11;101533.02;;;17.31;53.73
55460;BME280;41326;45.302;-122.946;2023-04-26T08:23:41;101537.00;;;17.28;53.85
55460;BME280;41326;45.302;-122.946;2023-04-26T08:26:11;101537.83;;;17.34;53.64
55460;BME280;41326;45.302;-122.946;2023-04-26T08:28:41;101532.95;;;17.32;53.69
55460;BME280;41326;45.302;-122.946;2023-04-26T08:31:11;101534.29;;;17.31;53.72
55460;BME280;41326;45.302;-122.946;2023-04-26T08:33:42;101529.74;;;17.33;53.62
55460;BME280;41326;45.302;-122.946;2023-04-26T08:36:12;101531.88;;;17.33;53.63
55460;BME280;41326;45.302;-122.946;2023-04-26T08:38:43;101525.38;;;17.32;53.60
55460;BME280;41326;45.302;-122.946;2023-04-26T08:41:15;101521.42;;;17.33;53.53
55460;BME280;41326;45.302;-122.946;2023-04-26T08:43:44;101517.91;;;17.33;53.51
55460;BME280;41326;45.302;-122.946;2023-04-26T08:46:17;101516.59;;;17.28;53.65
55460;BME280;41326;45.302;-122.946;2023-04-26T08:48:46;101517.12;;;17.25;53.69
55460;BME280;41326;45.302;-122.946;2023-04-26T08:51:17;101516.81;;;17.22;53.78
55460;BME280;41326;45.302;-122.946;2023-04-26T08:53:46;101514.70;;;17.18;53.92
55460;BME280;41326;45.302;-122.946;2023-04-26T08:56:17;101509.75;;;17.17;53.91
55460;BME280;41326;45.302;-122.946;2023-04-26T08:58:46;101509.09;;;17.24;53.68
55460;BME280;41326;45.302;-122.946;2023-04-26T09:01:20;101510.64;;;17.20;53.78
55460;BME280;41326;45.302;-122.946;2023-04-26T09:03:47;101513.16;;;17.19;53.80
55460;BME280;41326;45.302;-122.946;2023-04-26T09:06:18;101515.82;;;17.17;53.83
55460;BME280;41326;45.302;-122.946;2023-04-26T09:08:48;101522.15;;;17.15;53.91
55460;BME280;41326;45.302;-122.946;2023-04-26T09:11:18;101524.41;;;17.13;53.95
55460;BME280;41326;45.302;-122.946;2023-04-26T09:13:49;101523.73;;;17.11;54.00
55460;BME280;41326;45.302;-122.946;2023-04-26T09:16:19;101525.10;;;17.12;53.94
55460;BME280;41326;45.302;-122.946;2023-04-26T09:18:55;101524.09;;;17.19;53.67
55460;BME280;41326;45.302;-122.946;2023-04-26T09:21:20;101522.59;;;17.13;53.84
55460;BME280;41326;45.302;-122.946;2023-04-26T09:23:57;101518.09;;;17.12;53.84
55460;BME280;41326;45.302;-122.946;2023-04-26T09:26:22;101514.67;;;17.12;53.84
55460;BME280;41326;45.302;-122.946;2023-04-26T09:28:50;101508.45;;;17.13;53.78
55460;BME280;41326;45.302;-122.946;2023-04-26T09:33:57;101493.13;;;17.08;53.90
55460;BME280;41326;45.302;-122.946;2023-04-26T09:36:22;101487.64;;;17.14;53.67
55460;BME280;41326;45.302;-122.946;2023-04-26T09:38:52;101485.26;;;17.20;53.43
55460;BME280;41326;45.302;-122.946;2023-04-26T09:41:22;101486.82;;;17.23;53.36
55460;BME280;41326;45.302;-122.946;2023-04-26T09:43:53;101482.89;;;17.23;53.30
55460;BME280;41326;45.302;-122.946;2023-04-26T09:46:27;101484.24;;;17.17;53.48
55460;BME280;41326;45.302;-122.946;2023-04-26T09:49:00;101487.06;;;17.11;53.61
55460;BME280;41326;45.302;-122.946;2023-04-26T09:51:24;101490.24;;;17.10;53.67
55460;BME280;41326;45.302;-122.946;2023-04-26T09:53:55;101490.62;;;17.02;53.87
55460;BME280;41326;45.302;-122.946;2023-04-26T09:56:25;101483.73;;;17.06;53.75
55460;BME280;41326;45.302;-122.946;2023-04-26T09:58:59;101480.52;;;17.04;53.77
55460;BME280;41326;45.302;-122.946;2023-04-26T10:01:26;101481.93;;;16.97;53.95
55460;BME280;41326;45.302;-122.946;2023-04-26T10:03:56;101486.01;;;16.98;53.90
55460;BME280;41326;45.302;-122.946;2023-04-26T10:06:26;101490.70;;;16.93;54.06
55460;BME280;41326;45.302;-122.946;2023-04-26T10:08:56;101491.33;;;16.93;54.03
55460;BME280;41326;45.302;-122.946;2023-04-26T10:11:27;101493.19;;;16.91;54.04
55460;BME280;41326;45.302;-122.946;2023-04-26T10:13:57;101493.27;;;16.90;54.08
55460;BME280;41326;45.302;-122.946;2023-04-26T10:16:28;101493.06;;;16.93;53.94
55460;BME280;41326;45.302;-122.946;2023-04-26T10:18:58;101490.35;;;16.92;53.97
55460;BME280;41326;45.302;-122.946;2023-04-26T10:22:39;101493.34;;;16.88;54.06
55460;BME280;41326;45.302;-122.946;2023-04-26T10:25:07;101498.28;;;16.86;54.10
55460;BME280;41326;45.302;-122.946;2023-04-26T10:30:12;101499.76;;;16.84;54.15
55460;BME280;41326;45.302;-122.946;2023-04-26T10:35:12;101499.55;;;16.80;54.20
55460;BME280;41326;45.302;-122.946;2023-04-26T10:42:38;101482.97;;;16.80;54.20
55460;BME280;41326;45.302;-122.946;2023-04-26T10:47:40;101470.17;;;16.78;54.19
55460;BME280;41326;45.302;-122.946;2023-04-26T10:50:12;101470.91;;;16.73;54.33
55460;BME280;41326;45.302;-122.946;2023-04-26T10:55:11;101475.84;;;16.72;54.31
55460;BME280;41326;45.302;-122.946;2023-04-26T10:57:46;101472.54;;;16.70;54.33
55460;BME280;41326;45.302;-122.946;2023-04-26T11:00:17;101481.68;;;16.77;54.16
55460;BME280;41326;45.302;-122.946;2023-04-26T11:02:50;101488.05;;;16.75;54.18
55460;BME280;41326;45.302;-122.946;2023-04-26T11:07:42;101496.85;;;16.66;54.39
55460;BME280;41326;45.302;-122.946;2023-04-26T11:12:48;101498.52;;;16.67;54.30
55460;BME280;41326;45.302;-122.946;2023-04-26T11:15:13;101497.01;;;16.66;54.30
55460;BME280;41326;45.302;-122.946;2023-04-26T11:17:43;101497.69;;;16.62;54.38
55460;BME280;41326;45.302;-122.946;2023-04-26T11:20:15;101506.67;;;16.58;54.47
55460;BME280;41326;45.302;-122.946;2023-04-26T11:22:45;101511.09;;;16.60;54.38
55460;BME280;41326;45.302;-122.946;2023-04-26T11:25:14;101504.76;;;16.57;54.46
55460;BME280;41326;45.302;-122.946;2023-04-26T11:27:44;101492.11;;;16.53;54.52
55460;BME280;41326;45.302;-122.946;2023-04-26T11:30:17;101483.10;;;16.57;54.34
55460;BME280;41326;45.302;-122.946;2023-04-26T11:32:45;101483.12;;;16.55;54.33
55460;BME280;41326;45.302;-122.946;2023-04-26T11:35:16;101488.79;;;16.53;54.38
55460;BME280;41326;45.302;-122.946;2023-04-26T11:37:46;101493.05;;;16.50;54.43
55460;BME280;41326;45.302;-122.946;2023-04-26T11:40:17;101491.37;;;16.59;54.09
55460;BME280;41326;45.302;-122.946;2023-04-26T11:42:48;101487.88;;;16.50;54.33
55460;BME280;41326;45.302;-122.946;2023-04-26T11:45:20;101483.60;;;16.47;54.38
55460;BME280;41326;45.302;-122.946;2023-04-26T11:47:48;101481.77;;;16.47;54.38
55460;BME280;41326;45.302;-122.946;2023-04-26T11:50:18;101478.18;;;16.42;54.48
55460;BME280;41326;45.302;-122.946;2023-04-26T11:52:49;101469.68;;;16.43;54.41
55460;BME280;41326;45.302;-122.946;2023-04-26T11:55:20;101458.44;;;16.44;54.36
55460;BME280;41326;45.302;-122.946;2023-04-26T11:57:50;101461.10;;;16.43;54.33
55460;BME280;41326;45.302;-122.946;2023-04-26T12:00:21;101472.32;;;16.45;54.27
55460;BME280;41326;45.302;-122.946;2023-04-26T12:02:51;101474.60;;;16.46;54.18
55460;BME280;41326;45.302;-122.946;2023-04-26T12:05:25;101476.72;;;16.44;54.22
55460;BME280;41326;45.302;-122.946;2023-04-26T12:07:55;101475.00;;;16.45;54.18
55460;BME280;41326;45.302;-122.946;2023-04-26T12:10:23;101479.06;;;16.42;54.26
55460;BME280;41326;45.302;-122.946;2023-04-26T12:12:55;101484.23;;;16.42;54.22
55460;BME280;41326;45.302;-122.946;2023-04-26T12:15:23;101485.03;;;16.42;54.16
55460;BME280;41326;45.302;-122.946;2023-04-26T12:17:56;101480.90;;;16.43;54.11
55460;BME280;41326;45.302;-122.946;2023-04-26T12:20:27;101482.62;;;16.40;54.15
55460;BME280;41326;45.302;-122.946;2023-04-26T12:22:57;101487.48;;;16.39;54.17
55460;BME280;41326;45.302;-122.946;2023-04-26T12:25:24;101492.21;;;16.39;54.10
55460;BME280;41326;45.302;-122.946;2023-04-26T12:27:53;101489.51;;;16.40;54.04
55460;BME280;41326;45.302;-122.946;2023-04-26T12:30:25;101479.18;;;16.34;54.20
55460;BME280;41326;45.302;-122.946;2023-04-26T12:32:54;101471.92;;;16.33;54.18
55460;BME280;41326;45.302;-122.946;2023-04-26T12:35:24;101465.08;;;16.33;54.14
55460;BME280;41326;45.302;-122.946;2023-04-26T12:37:55;101452.66;;;16.32;54.12
55460;BME280;41326;45.302;-122.946;2023-04-26T12:40:25;101448.10;;;16.33;54.07
55460;BME280;41326;45.302;-122.946;2023-04-26T12:42:55;101458.12;;;16.31;54.14
55460;BME280;41326;45.302;-122.946;2023-04-26T12:45:25;101470.84;;;16.30;54.12
55460;BME280;41326;45.302;-122.946;2023-04-26T12:47:56;101481.46;;;16.25;54.26
55460;BME280;41326;45.302;-122.946;2023-04-26T12:50:27;101488.68;;;16.29;54.10
55460;BME280;41326;45.302;-122.946;2023-04-26T12:52:57;101495.43;;;16.24;54.26
55460;BME280;41326;45.302;-122.946;2023-04-26T12:55:27;101503.96;;;16.22;54.28
55460;BME280;41326;45.302;-122.946;2023-04-26T12:57:58;101506.82;;;16.22;54.20
55460;BME280;41326;45.302;-122.946;2023-04-26T13:00:28;101507.26;;;16.24;54.13